Time;durP1;ratioP1;P1;durP2;ratioP2;P2;SDS_P1;SDS_P2;PMS_P1;PMS_P2;Temp;Humidity;BMP_temperature;BMP_pressure;BME280_temperature;BME280_humidity;BME280_pressure;Samples;Min_cycle;Max_cycle;Signal;HPM_P1;HPM_P2
2021/06/12 00:01:27;;;;;;;10.38;8.27;;;435.40;2355.20;;;;;;5033207;28;20045;-80
2021/06/12 00:03:53;;;;;;;10.20;7.85;;;435.30;2355.20;;;;;;5033530;28;20087;-80
2021/06/12 00:06:19;;;;;;;11.20;7.70;;;435.40;2355.20;;;;;;5033178;28;20029;-81
2021/06/12 00:08:45;;;;;;;11.07;7.70;;;435.30;2355.20;;;;;;5033316;28;20095;-81
2021/06/12 00:11:10;;;;;;;10.15;7.63;;;435.40;2355.20;;;;;;5034573;28;20099;-81
2021/06/12 00:13:36;;;;;;;14.48;7.93;;;435.40;2355.20;;;;;;5033345;28;20449;-81
2021/06/12 00:16:03;;;;;;;8.50;6.85;;;435.40;2355.20;;;;;;5033039;28;20453;-81
2021/06/12 00:18:28;;;;;;;9.20;7.30;;;435.40;2355.20;;;;;;5033278;28;20457;-81
2021/06/12 00:20:56;;;;;;;9.52;6.80;;;435.50;2355.20;;;;;;5033202;28;20055;-81
2021/06/12 00:23:22;;;;;;;11.52;7.53;;;435.50;2355.20;;;;;;5032886;28;20033;-81
2021/06/12 00:25:48;;;;;;;9.95;7.10;;;435.20;2355.20;;;;;;5033105;28;20116;-81
2021/06/12 00:28:14;;;;;;;16.52;7.65;;;410.50;2355.20;;;;;;5032706;28;20053;-81
2021/06/12 00:30:40;;;;;;;10.68;7.82;;;435.20;2355.20;;;;;;5034196;28;20432;-81
2021/06/12 00:33:06;;;;;;;10.65;7.45;;;435.20;2355.20;;;;;;5033062;28;20056;-80
2021/06/12 00:35:33;;;;;;;10.55;7.60;;;435.30;2355.20;;;;;;5034051;28;20021;-80
2021/06/12 00:37:59;;;;;;;12.50;8.95;;;435.30;2355.20;;;;;;5033003;28;20476;-80
2021/06/12 00:40:25;;;;;;;11.35;8.00;;;435.20;2355.20;;;;;;5033039;28;20424;-80
2021/06/12 00:42:52;;;;;;;18.85;8.55;;;410.30;2355.20;;;;;;5032306;28;20091;-81
2021/06/12 00:45:21;;;;;;;12.93;8.02;;;410.20;2355.20;;;;;;5032848;28;20354;-81
2021/06/12 00:47:50;;;;;;;11.02;7.72;;;410.20;2355.20;;;;;;5032818;28;20021;-81
2021/06/12 00:50:17;;;;;;;10.60;8.05;;;410.20;2355.20;;;;;;5032581;28;20030;-81
2021/06/12 00:52:43;;;;;;;12.00;8.15;;;410.20;2355.20;;;;;;5034085;28;20045;-80
2021/06/12 00:55:12;;;;;;;12.60;7.95;;;410.20;2355.20;;;;;;5032675;28;20029;-80
2021/06/12 00:57:38;;;;;;;13.05;8.02;;;410.10;2355.20;;;;;;5032281;28;20026;-80
2021/06/12 01:00:06;;;;;;;10.63;8.25;;;410.10;2355.20;;;;;;5032738;28;20059;-81
2021/06/12 01:02:34;;;;;;;12.77;8.65;;;409.90;2355.20;;;;;;5032324;28;20140;-80
2021/06/12 01:05:00;;;;;;;14.18;7.82;;;410.00;2355.20;;;;;;5032333;28;20440;-80
2021/06/12 01:07:25;;;;;;;11.45;8.70;;;410.00;2355.20;;;;;;5032349;28;20040;-80
2021/06/12 01:09:52;;;;;;;12.75;9.23;;;409.90;2355.20;;;;;;5032523;28;20021;-80
2021/06/12 01:12:36;;;;;;;10.40;8.35;;;409.90;2355.20;;;;;;5032208;28;20059;-80
2021/06/12 01:15:04;;;;;;;12.40;8.45;;;410.00;2355.20;;;;;;5032678;28;20022;-80
2021/06/12 01:17:36;;;;;;;9.73;8.35;;;409.90;2355.20;;;;;;5032277;28;20049;-81
2021/06/12 01:20:21;;;;;;;8.70;7.72;;;410.10;2355.20;;;;;;5032611;28;20079;-81
2021/06/12 01:22:47;;;;;;;10.80;7.97;;;410.00;2355.20;;;;;;5033787;28;20158;-81
2021/06/12 01:25:20;;;;;;;13.23;8.05;;;409.90;2355.20;;;;;;5032124;28;20029;-80
2021/06/12 01:28:10;;;;;;;11.10;7.95;;;409.80;2355.20;;;;;;5032388;28;20034;-80
2021/06/12 01:30:39;;;;;;;12.20;8.00;;;410.00;2355.20;;;;;;5033693;28;20170;-81
2021/06/12 01:33:11;;;;;;;13.18;7.38;;;410.10;2355.20;;;;;;5031998;28;20477;-81
2021/06/12 01:35:37;;;;;;;10.05;7.97;;;410.20;2355.20;;;;;;5032337;28;20112;-81
2021/06/12 01:38:06;;;;;;;11.63;7.82;;;410.20;2355.20;;;;;;5032213;28;20061;-81
2021/06/12 01:40:35;;;;;;;10.93;8.45;;;410.00;2355.20;;;;;;5034590;28;20075;-81
2021/06/12 01:43:03;;;;;;;11.50;8.68;;;409.90;2355.20;;;;;;5036797;28;20488;-80
2021/06/12 01:45:31;;;;;;;11.45;7.47;;;409.90;2355.20;;;;;;5036814;28;20013;-81
2021/06/12 01:47:58;;;;;;;13.25;8.07;;;410.00;2355.20;;;;;;5037519;28;20032;-81
2021/06/12 01:50:25;;;;;;;10.48;7.60;;;410.10;2355.20;;;;;;5036066;28;20491;-81
2021/06/12 01:52:53;;;;;;;9.38;7.43;;;410.20;2355.20;;;;;;5035525;28;20063;-81
2021/06/12 01:55:23;;;;;;;10.30;8.38;;;410.20;2355.20;;;;;;5035255;28;20523;-81
2021/06/12 01:57:49;;;;;;;10.65;7.97;;;410.20;2355.20;;;;;;5035333;28;20021;-81
2021/06/12 02:00:15;;;;;;;9.95;7.75;;;409.90;2355.20;;;;;;5035166;28;20056;-81
2021/06/12 02:02:43;;;;;;;9.10;7.53;;;410.40;2355.20;;;;;;5035835;28;20049;-81
2021/06/12 02:05:13;;;;;;;11.23;7.72;;;410.20;2355.20;;;;;;5035872;28;20026;-81
2021/06/12 02:07:40;;;;;;;8.82;7.63;;;410.20;2355.20;;;;;;5035347;28;20033;-81
2021/06/12 02:10:07;;;;;;;11.07;7.03;;;410.00;2355.20;;;;;;5035249;28;20468;-81
2021/06/12 02:12:35;;;;;;;11.73;6.78;;;409.90;2355.20;;;;;;5035131;28;20381;-81
2021/06/12 02:15:02;;;;;;;11.52;7.57;;;410.00;2355.20;;;;;;5035082;28;20021;-81
2021/06/12 02:17:31;;;;;;;10.57;7.35;;;410.30;2355.20;;;;;;5035654;28;20457;-81
2021/06/12 02:19:58;;;;;;;11.50;7.15;;;410.50;2355.20;;;;;;5035571;28;20026;-81
2021/06/12 02:22:24;;;;;;;8.48;6.85;;;410.50;2355.20;;;;;;5036368;28;20453;-81
2021/06/12 02:24:50;;;;;;;11.07;7.35;;;410.30;2355.20;;;;;;5034862;28;20025;-81
2021/06/12 02:27:20;;;;;;;10.05;6.85;;;410.30;2355.20;;;;;;5035776;28;20021;-81
2021/06/12 02:29:47;;;;;;;11.07;8.02;;;410.50;2355.20;;;;;;5035317;28;20021;-81
2021/06/12 02:32:16;;;;;;;11.30;8.13;;;410.50;2355.20;;;;;;5035378;28;20025;-81
2021/06/12 02:34:42;;;;;;;9.65;7.82;;;410.20;2355.20;;;;;;5035090;28;20049;-81
2021/06/12 02:37:08;;;;;;;11.15;7.80;;;410.20;2355.20;;;;;;5036681;28;20060;-81
2021/06/12 02:39:36;;;;;;;10.80;7.70;;;410.30;2355.20;;;;;;5035167;28;20457;-81
2021/06/12 02:42:03;;;;;;;13.20;9.43;;;410.10;2355.20;;;;;;5034904;28;20026;-81
2021/06/12 02:44:29;;;;;;;11.73;9.35;;;409.90;2355.20;;;;;;5035017;28;20092;-81
2021/06/12 02:47:00;;;;;;;10.65;9.02;;;410.20;2355.20;;;;;;5034946;28;20117;-81
2021/06/12 02:49:32;;;;;;;11.70;8.98;;;410.20;2355.20;;;;;;5036016;28;20018;-81
2021/06/12 02:52:00;;;;;;;17.65;9.88;;;409.80;2355.20;;;;;;5035452;28;20454;-81
2021/06/12 02:54:27;;;;;;;19.63;9.23;;;384.90;2329.60;;;;;;5034950;28;20412;-81
2021/06/12 02:56:56;;;;;;;13.88;8.82;;;384.70;2329.60;;;;;;5035821;28;20067;-80
2021/06/12 02:59:23;;;;;;;14.75;8.32;;;384.80;2329.60;;;;;;5034897;28;20108;-80
2021/06/12 03:01:51;;;;;;;13.65;8.98;;;409.80;2355.20;;;;;;5034368;28;20057;-81
2021/06/12 03:04:18;;;;;;;12.38;9.38;;;409.90;2355.20;;;;;;5035539;28;20068;-80
2021/06/12 03:06:47;;;;;;;9.63;8.43;;;410.00;2355.20;;;;;;5034720;28;20024;-80
2021/06/12 03:09:16;;;;;;;15.10;9.00;;;410.00;2355.20;;;;;;5035873;28;20056;-79
2021/06/12 03:11:44;;;;;;;9.55;8.52;;;410.00;2355.20;;;;;;5034600;28;20112;-81
2021/06/12 03:14:13;;;;;;;10.95;9.05;;;410.20;2355.20;;;;;;5034633;28;20481;-81
2021/06/12 03:16:42;;;;;;;11.98;8.25;;;410.10;2355.20;;;;;;5035671;28;20593;-81
2021/06/12 03:19:11;;;;;;;14.27;8.55;;;410.20;2355.20;;;;;;5034448;28;20528;-79
2021/06/12 03:21:38;;;;;;;12.15;8.88;;;410.20;2355.20;;;;;;5034359;28;20029;-81
2021/06/12 03:24:06;;;;;;;10.00;7.35;;;410.20;2355.20;;;;;;5034964;28;20032;-81
2021/06/12 03:26:36;;;;;;;10.65;8.52;;;410.20;2355.20;;;;;;5035218;28;20021;-81
2021/06/12 03:29:04;;;;;;;12.88;9.35;;;410.00;2355.20;;;;;;5034101;28;20025;-80
2021/06/12 03:31:30;;;;;;;13.95;8.48;;;409.80;2355.20;;;;;;5034064;28;20420;-80
2021/06/12 03:33:57;;;;;;;12.68;8.57;;;409.70;2355.20;;;;;;5034221;28;20025;-81
2021/06/12 03:36:25;;;;;;;11.60;8.50;;;410.20;2355.20;;;;;;5034058;28;20473;-80
2021/06/12 03:38:51;;;;;;;13.10;10.00;;;409.90;2355.20;;;;;;5034961;28;20040;-81
2021/06/12 03:41:18;;;;;;;12.43;9.50;;;409.60;2355.20;;;;;;5034163;28;20451;-80
2021/06/12 03:43:45;;;;;;;12.60;8.85;;;409.70;2355.20;;;;;;5033868;28;20090;-82
2021/06/12 03:46:15;;;;;;;10.48;8.68;;;409.80;2355.20;;;;;;5033754;28;20451;-80
2021/06/12 03:48:43;;;;;;;10.25;8.27;;;409.90;2355.20;;;;;;5033920;28;20461;-80
2021/06/12 03:51:12;;;;;;;10.93;8.70;;;410.00;2355.20;;;;;;5033821;28;20032;-81
2021/06/12 03:53:46;;;;;;;17.40;8.77;;;410.00;2355.20;;;;;;5034683;28;20025;-80
2021/06/12 03:56:22;;;;;;;11.98;8.23;;;410.00;2355.20;;;;;;5033706;28;20022;-80
2021/06/12 03:58:50;;;;;;;15.60;7.97;;;409.90;2355.20;;;;;;5033342;28;20057;-81
2021/06/12 04:01:17;;;;;;;10.13;8.60;;;409.90;2355.20;;;;;;5033375;28;20615;-80
2021/06/12 04:03:43;;;;;;;11.90;8.20;;;410.00;2355.20;;;;;;5032601;28;20480;-80
2021/06/12 04:06:10;;;;;;;10.80;8.50;;;410.00;2355.20;;;;;;5033199;28;20021;-80
2021/06/12 04:08:36;;;;;;;11.65;7.88;;;410.00;2355.20;;;;;;5034834;28;20021;-80
2021/06/12 04:11:02;;;;;;;13.18;8.55;;;409.70;2355.20;;;;;;5033679;28;20486;-81
2021/06/12 04:13:28;;;;;;;12.02;8.07;;;409.90;2355.20;;;;;;5034272;28;20084;-80
2021/06/12 04:15:54;;;;;;;9.88;7.55;;;410.00;2355.20;;;;;;5033309;28;20024;-81
2021/06/12 04:18:21;;;;;;;11.23;8.48;;;410.00;2355.20;;;;;;5033443;28;20017;-80
2021/06/12 04:20:47;;;;;;;10.57;8.55;;;410.00;2355.20;;;;;;5034239;28;20033;-80
2021/06/12 04:23:13;;;;;;;10.40;7.75;;;409.90;2355.20;;;;;;5034532;28;20033;-80
2021/06/12 04:25:39;;;;;;;12.13;8.73;;;409.90;2355.20;;;;;;5034368;28;20460;-81
2021/06/12 04:28:05;;;;;;;13.20;8.48;;;409.80;2355.20;;;;;;5032550;28;20022;-79
2021/06/12 04:30:31;;;;;;;11.35;8.45;;;410.50;2355.20;;;;;;5033010;28;20021;-80
2021/06/12 04:32:58;;;;;;;14.15;8.02;;;409.80;2355.20;;;;;;5034372;28;20334;-82
2021/06/12 04:35:24;;;;;;;20.52;10.45;;;409.70;2355.20;;;;;;5032689;28;20124;-79
2021/06/12 04:37:50;;;;;;;16.80;9.90;;;409.80;2355.20;;;;;;5032938;28;20028;-79
2021/06/12 04:40:16;;;;;;;13.20;10.10;;;409.90;2355.20;;;;;;5032872;28;20116;-78
2021/06/12 04:42:42;;;;;;;19.30;10.88;;;409.60;2355.20;;;;;;5032431;28;20025;-79
2021/06/12 04:45:09;;;;;;;14.65;10.32;;;384.80;2329.60;;;;;;5032794;28;20028;-79
2021/06/12 04:47:36;;;;;;;12.80;9.90;;;409.60;2355.20;;;;;;5032491;28;20022;-79
2021/06/12 04:50:04;;;;;;;15.15;9.18;;;409.70;2355.20;;;;;;5032743;28;20024;-79
2021/06/12 04:52:30;;;;;;;13.30;9.95;;;409.80;2355.20;;;;;;5032751;28;20112;-79
2021/06/12 04:54:56;;;;;;;13.82;9.50;;;409.90;2355.20;;;;;;5033682;28;20119;-79
2021/06/12 04:57:22;;;;;;;17.33;10.98;;;409.90;2355.20;;;;;;5032837;28;20432;-79
2021/06/12 04:59:48;;;;;;;15.20;9.77;;;409.90;2355.20;;;;;;5033865;28;20096;-79
2021/06/12 05:02:14;;;;;;;12.18;10.27;;;409.90;2355.20;;;;;;5031988;28;20108;-79
2021/06/12 05:04:40;;;;;;;12.45;9.93;;;409.90;2355.20;;;;;;5033847;28;20339;-80
2021/06/12 05:07:06;;;;;;;14.73;11.05;;;409.90;2355.20;;;;;;5032586;28;20071;-79
2021/06/12 05:09:32;;;;;;;10.35;9.30;;;410.00;2355.20;;;;;;5032202;28;20120;-80
2021/06/12 05:11:59;;;;;;;11.95;8.82;;;410.00;2355.20;;;;;;5032503;28;20445;-80
2021/06/12 05:14:25;;;;;;;12.57;8.55;;;410.10;2355.20;;;;;;5032303;28;20722;-79
2021/06/12 05:16:51;;;;;;;14.40;9.80;;;410.20;2355.20;;;;;;5032107;28;20025;-79
2021/06/12 05:19:17;;;;;;;12.38;9.73;;;410.20;2355.20;;;;;;5032538;28;20125;-80
2021/06/12 05:21:46;;;;;;;12.80;10.20;;;410.30;2355.20;;;;;;5033639;28;20353;-80
2021/06/12 05:24:12;;;;;;;13.82;10.77;;;410.40;2355.20;;;;;;5032019;28;20026;-80
2021/06/12 05:26:39;;;;;;;15.10;11.10;;;410.40;2355.20;;;;;;5032403;28;20035;-80
2021/06/12 05:29:06;;;;;;;15.13;11.45;;;435.20;2355.20;;;;;;5032381;28;20017;-80
2021/06/12 05:31:32;;;;;;;20.25;11.18;;;410.50;2355.20;;;;;;5031840;28;20025;-80
2021/06/12 05:33:58;;;;;;;16.48;11.55;;;435.20;2355.20;;;;;;5033696;28;20022;-80
2021/06/12 05:36:24;;;;;;;14.98;11.43;;;435.20;2355.20;;;;;;5032006;28;20427;-80
2021/06/12 05:38:51;;;;;;;14.93;10.77;;;435.20;2355.20;;;;;;5033554;28;20044;-79
2021/06/12 05:41:17;;;;;;;16.13;11.18;;;410.20;2355.20;;;;;;5032218;28;20025;-79
2021/06/12 05:43:43;;;;;;;15.98;10.82;;;435.20;2355.20;;;;;;5031950;28;20476;-79
2021/06/12 05:46:09;;;;;;;17.17;11.05;;;435.20;2355.20;;;;;;5032024;28;20025;-79
2021/06/12 05:48:35;;;;;;;14.50;10.63;;;435.20;2355.20;;;;;;5031746;28;20070;-80
2021/06/12 05:51:01;;;;;;;18.55;11.43;;;435.30;2355.20;;;;;;5033383;28;20024;-80
2021/06/12 05:53:27;;;;;;;18.33;11.70;;;435.30;2355.20;;;;;;5032016;28;20033;-80
2021/06/12 05:55:53;;;;;;;15.88;10.32;;;435.30;2355.20;;;;;;5031726;28;20021;-80
2021/06/12 05:58:19;;;;;;;18.08;10.05;;;435.40;2355.20;;;;;;5032063;28;20021;-80
2021/06/12 06:00:45;;;;;;;15.82;10.60;;;435.50;2355.20;;;;;;5032003;28;20053;-80
2021/06/12 06:03:11;;;;;;;15.35;11.30;;;435.60;2355.20;;;;;;5031151;28;20045;-79
2021/06/12 06:05:37;;;;;;;13.60;10.65;;;435.60;2355.20;;;;;;5031834;28;20037;-80
2021/06/12 06:08:03;;;;;;;18.00;12.18;;;435.80;2355.20;;;;;;5031633;28;20036;-80
2021/06/12 06:10:28;;;;;;;23.15;13.35;;;435.70;2355.20;;;;;;5032930;28;20021;-79
2021/06/12 06:12:59;;;;;;;17.67;11.57;;;435.80;2355.20;;;;;;5031979;28;20032;-79
2021/06/12 06:15:25;;;;;;;18.65;12.00;;;435.60;2355.20;;;;;;5031707;28;20017;-79
2021/06/12 06:17:51;;;;;;;15.15;10.07;;;435.60;2355.20;;;;;;5031985;28;20473;-79
2021/06/12 06:20:17;;;;;;;16.15;11.48;;;435.80;2355.20;;;;;;5031789;28;20029;-79
2021/06/12 06:22:42;;;;;;;14.98;10.77;;;435.80;2355.20;;;;;;5031442;28;20033;-80
2021/06/12 06:25:09;;;;;;;16.50;11.38;;;435.90;2355.20;;;;;;5031887;28;20017;-80
2021/06/12 06:27:35;;;;;;;15.90;11.52;;;436.10;2355.20;;;;;;5034568;28;20028;-80
2021/06/12 06:30:01;;;;;;;16.67;10.50;;;436.00;2355.20;;;;;;5035034;28;20025;-80
2021/06/12 06:32:27;;;;;;;12.85;9.45;;;436.10;2355.20;;;;;;5035247;28;20035;-80
2021/06/12 06:34:53;;;;;;;13.77;10.32;;;460.90;2380.80;;;;;;5035241;28;20072;-79
2021/06/12 06:37:19;;;;;;;13.90;10.05;;;461.00;2380.80;;;;;;5034913;28;20028;-80
2021/06/12 06:39:45;;;;;;;11.68;9.27;;;461.10;2380.80;;;;;;5035069;28;20121;-80
2021/06/12 06:42:11;;;;;;;12.65;9.82;;;461.10;2380.80;;;;;;5035044;28;20025;-80
2021/06/12 06:44:37;;;;;;;15.93;11.13;;;461.10;2380.80;;;;;;5036080;28;20021;-80
2021/06/12 06:47:04;;;;;;;16.75;10.68;;;461.10;2380.80;;;;;;5035088;28;20116;-80
2021/06/12 06:49:30;;;;;;;13.40;10.57;;;486.40;2380.80;;;;;;5034991;28;20032;-80
2021/06/12 06:51:56;;;;;;;13.27;10.43;;;461.20;2380.80;;;;;;5034488;28;20075;-80
2021/06/12 06:54:22;;;;;;;14.93;9.80;;;461.20;2380.80;;;;;;5034924;28;20030;-80
2021/06/12 06:56:48;;;;;;;13.40;9.60;;;461.40;2380.80;;;;;;5034774;28;20025;-80
2021/06/12 06:59:16;;;;;;;13.85;10.77;;;461.50;2380.80;;;;;;5034374;28;20083;-80
2021/06/12 07:01:42;;;;;;;14.05;10.20;;;461.70;2380.80;;;;;;5034348;28;20049;-80
2021/06/12 07:04:08;;;;;;;14.23;9.63;;;486.60;2380.80;;;;;;5035581;28;20111;-80
2021/06/12 07:06:34;;;;;;;13.50;9.65;;;486.70;2380.80;;;;;;5034584;28;20025;-79
2021/06/12 07:09:00;;;;;;;11.10;9.52;;;486.70;2380.80;;;;;;5036141;28;20026;-80
2021/06/12 07:11:26;;;;;;;14.25;8.80;;;486.70;2380.80;;;;;;5035465;28;20079;-80
2021/06/12 07:13:51;;;;;;;13.32;8.65;;;486.70;2380.80;;;;;;5034393;28;20172;-80
2021/06/12 07:16:17;;;;;;;14.45;9.65;;;487.00;2380.80;;;;;;5035471;28;20029;-80
2021/06/12 07:18:43;;;;;;;15.00;9.82;;;487.20;2380.80;;;;;;5035736;28;20021;-80
2021/06/12 07:21:09;;;;;;;20.08;10.07;;;512.20;2380.80;;;;;;5034455;28;20116;-81
2021/06/12 07:23:35;;;;;;;9.85;6.80;;;512.40;2380.80;;;;;;5035688;28;20056;-80
2021/06/12 07:26:01;;;;;;;15.32;7.60;;;512.30;2380.80;;;;;;5033968;28;20026;-80
2021/06/12 07:28:27;;;;;;;8.10;6.95;;;512.50;2380.80;;;;;;5034323;28;20029;-79
2021/06/12 07:30:53;;;;;;;12.70;6.70;;;512.70;2380.80;;;;;;5034173;28;20141;-80
2021/06/12 07:33:19;;;;;;;9.48;6.53;;;512.70;2380.80;;;;;;5033902;28;20026;-80
2021/06/12 07:35:45;;;;;;;8.30;6.30;;;512.70;2380.80;;;;;;5034069;28;20104;-80
2021/06/12 07:38:12;;;;;;;6.50;5.82;;;512.70;2380.80;;;;;;5033905;28;20423;-80
2021/06/12 07:40:38;;;;;;;8.25;6.30;;;512.70;2380.80;;;;;;5033691;28;20471;-80
2021/06/12 07:43:05;;;;;;;7.63;6.10;;;512.90;2380.80;;;;;;5033822;28;20461;-80
2021/06/12 07:45:31;;;;;;;8.73;6.78;;;537.70;2406.40;;;;;;5035208;28;20021;-80
2021/06/12 07:47:57;;;;;;;11.90;7.03;;;512.90;2380.80;;;;;;5033333;28;20034;-80
2021/06/12 07:50:25;;;;;;;6.93;6.20;;;537.90;2406.40;;;;;;5033928;28;20364;-78
2021/06/12 07:52:51;;;;;;;11.00;6.68;;;537.90;2406.40;;;;;;5035022;28;20078;-80
2021/06/12 07:55:17;;;;;;;11.40;7.50;;;537.60;2406.40;;;;;;5033476;28;20033;-79
2021/06/12 07:57:43;;;;;;;13.38;7.50;;;538.00;2406.40;;;;;;5034880;28;20017;-79
2021/06/12 08:00:10;;;;;;;8.90;6.53;;;538.00;2406.40;;;;;;5033151;28;20044;-79
2021/06/12 08:02:36;;;;;;;9.85;6.70;;;537.90;2406.40;;;;;;5048740;28;20048;-77
2021/06/12 08:05:03;;;;;;;8.27;6.03;;;538.50;2406.40;;;;;;5054625;28;20482;-79
2021/06/12 08:07:29;;;;;;;6.82;5.85;;;563.20;2432.00;;;;;;5052653;28;20444;-78
2021/06/12 08:09:55;;;;;;;7.30;6.20;;;563.30;2432.00;;;;;;5038951;28;20033;-79
2021/06/12 08:12:21;;;;;;;7.57;6.70;;;563.50;2432.00;;;;;;5034653;28;20024;-78
2021/06/12 08:14:51;;;;;;;8.35;5.70;;;563.60;2432.00;;;;;;5032954;28;20368;-79
2021/06/12 08:17:17;;;;;;;8.02;6.18;;;563.60;2432.00;;;;;;5033221;28;20131;-78
2021/06/12 08:19:43;;;;;;;8.55;5.88;;;563.60;2432.00;;;;;;5033199;28;20144;-79
2021/06/12 08:22:11;;;;;;;7.53;6.43;;;563.70;2432.00;;;;;;5032707;28;20052;-78
2021/06/12 08:24:37;;;;;;;7.32;6.45;;;564.10;2432.00;;;;;;5033348;28;20513;-78
2021/06/12 08:27:04;;;;;;;13.70;7.13;;;588.90;2432.00;;;;;;5052924;28;20369;-78
2021/06/12 08:29:31;;;;;;;11.88;6.93;;;589.30;2432.00;;;;;;5053711;28;20048;-78
2021/06/12 08:31:57;;;;;;;11.02;6.60;;;589.00;2432.00;;;;;;5053133;28;20495;-80
2021/06/12 08:34:23;;;;;;;10.95;7.28;;;589.10;2432.00;;;;;;5052863;28;20060;-80
2021/06/12 08:36:50;;;;;;;8.93;6.95;;;589.20;2432.00;;;;;;5042382;28;20024;-78
2021/06/12 08:39:16;;;;;;;12.55;7.40;;;589.20;2432.00;;;;;;5049248;28;20401;-79
2021/06/12 08:41:43;;;;;;;10.73;6.22;;;589.40;2432.00;;;;;;5046327;28;20032;-77
2021/06/12 08:44:13;;;;;;;13.18;7.70;;;589.60;2432.00;;;;;;5033057;28;20025;-79
2021/06/12 08:46:40;;;;;;;9.45;7.22;;;614.60;2432.00;;;;;;5036475;28;20025;-77
2021/06/12 08:49:06;;;;;;;9.40;6.25;;;614.40;2432.00;;;;;;5045580;28;20508;-77
2021/06/12 08:51:33;;;;;;;6.97;5.63;;;614.90;2432.00;;;;;;5039062;28;20052;-75
2021/06/12 08:54:00;;;;;;;11.18;7.95;;;614.50;2432.00;;;;;;5032605;28;20025;-75
2021/06/12 08:56:26;;;;;;;14.35;8.25;;;589.70;2432.00;;;;;;5032332;28;20360;-73
2021/06/12 08:58:52;;;;;;;11.23;8.60;;;589.40;2432.00;;;;;;5032583;28;20028;-75
2021/06/12 09:01:19;;;;;;;9.05;7.28;;;589.20;2432.00;;;;;;5037013;28;20052;-75
2021/06/12 09:03:46;;;;;;;9.77;5.80;;;589.40;2432.00;;;;;;5053437;28;20060;-74
2021/06/12 09:06:18;;;;;;;5.72;4.75;;;589.70;2432.00;;;;;;5035400;28;20028;-76
2021/06/12 09:08:44;;;;;;;8.17;5.40;;;614.60;2432.00;;;;;;5058907;28;20020;-75
2021/06/12 09:11:11;;;;;;;8.90;6.90;;;614.40;2432.00;;;;;;5053305;28;20551;-74
2021/06/12 09:13:45;;;;;;;8.27;5.60;;;614.40;2432.00;;;;;;5035622;28;20074;-75
2021/06/12 09:16:40;;;;;;;7.20;6.15;;;614.60;2432.00;;;;;;5035753;28;20345;-76
2021/06/12 09:19:12;;;;;;;6.25;4.85;;;614.80;2432.00;;;;;;5043900;28;20053;-75
2021/06/12 09:22:01;;;;;;;12.73;7.72;;;615.10;2432.00;;;;;;5035834;28;20057;-76
2021/06/12 09:24:32;;;;;;;7.38;5.68;;;615.30;2432.00;;;;;;5035275;28;20127;-76
2021/06/12 09:27:03;;;;;;;12.83;5.50;;;640.20;2432.00;;;;;;5035604;28;20112;-76
2021/06/12 09:30:00;;;;;;;8.90;5.80;;;640.50;2432.00;;;;;;5053521;28;20300;-75
2021/06/12 09:32:29;;;;;;;13.27;6.35;;;640.50;2432.00;;;;;;5050669;28;20029;-77
2021/06/12 09:35:03;;;;;;;11.38;6.30;;;640.60;2406.40;;;;;;5035519;28;20028;-78
2021/06/12 09:37:29;;;;;;;7.97;4.75;;;640.60;2380.80;;;;;;5035539;28;20116;-76
2021/06/12 09:40:13;;;;;;;4.65;3.47;;;640.70;2329.60;;;;;;5053059;28;20431;-78
2021/06/12 09:42:50;;;;;;;5.90;3.30;;;640.10;2278.40;;;;;;5035421;28;20112;-78
2021/06/12 09:45:20;;;;;;;6.43;3.50;;;615.30;2252.80;;;;;;5053126;28;20471;-76
2021/06/12 09:47:46;;;;;;;6.88;5.50;;;615.10;2278.40;;;;;;5038056;28;20383;-77
2021/06/12 09:50:14;;;;;;;6.22;5.10;;;614.90;2278.40;;;;;;5048056;28;20032;-77
2021/06/12 09:52:46;;;;;;;7.80;3.90;;;615.10;2278.40;;;;;;5055018;28;20028;-77
2021/06/12 09:55:31;;;;;;;6.50;3.13;;;640.10;2278.40;;;;;;5055379;28;20023;-77
2021/06/12 09:58:00;;;;;;;5.25;3.58;;;640.20;2227.20;;;;;;5073551;28;20035;-80
2021/06/12 10:00:37;;;;;;;6.05;3.80;;;640.00;2201.60;;;;;;5055211;28;20032;-81
2021/06/12 10:03:15;;;;;;;6.03;3.90;;;615.20;2252.80;;;;;;5055365;28;20072;-80
2021/06/12 10:05:41;;;;;;;5.00;3.33;;;615.10;2252.80;;;;;;5054799;28;20021;-80
2021/06/12 10:08:07;;;;;;;7.45;3.90;;;640.10;2201.60;;;;;;5055052;28;20388;-80
2021/06/12 10:10:33;;;;;;;5.90;4.45;;;640.40;2227.20;;;;;;5055707;28;20024;-80
2021/06/12 10:13:03;;;;;;;9.70;5.03;;;640.40;2227.20;;;;;;5055312;28;20095;-80
2021/06/12 10:15:30;;;;;;;4.88;3.30;;;640.20;2201.60;;;;;;5055778;28;20043;-80
2021/06/12 10:17:56;;;;;;;9.43;4.28;;;640.20;2176.00;;;;;;5055536;28;20067;-80
2021/06/12 10:20:24;;;;;;;7.22;3.70;;;640.60;2201.60;;;;;;5055202;28;20025;-80
2021/06/12 10:22:53;;;;;;;10.85;4.45;;;640.70;2176.00;;;;;;5055424;28;20373;-80
2021/06/12 10:25:23;;;;;;;6.10;4.07;;;640.60;2176.00;;;;;;5055536;28;20017;-80
2021/06/12 10:27:49;;;;;;;7.82;3.53;;;640.70;2150.40;;;;;;5055219;28;20024;-81
2021/06/12 10:30:19;;;;;;;6.20;3.53;;;666.00;2099.20;;;;;;5055323;28;20024;-81
2021/06/12 10:32:50;;;;;;;7.65;3.45;;;665.90;2073.60;;;;;;5055498;28;20124;-81
2021/06/12 10:35:24;;;;;;;5.85;3.33;;;665.70;2099.20;;;;;;5056189;28;20017;-81
2021/06/12 10:38:05;;;;;;;8.30;3.15;;;666.00;2073.60;;;;;;5055131;28;20032;-81
2021/06/12 10:40:49;;;;;;;6.13;3.78;;;665.90;2073.60;;;;;;5055118;28;20392;-82
2021/06/12 10:43:23;;;;;;;5.13;4.22;;;666.10;2124.80;;;;;;5056143;28;20039;-78
2021/06/12 10:46:09;;;;;;;8.00;3.55;;;666.00;2150.40;;;;;;5054761;28;20594;-78
2021/06/12 10:48:45;;;;;;;5.03;3.63;;;665.80;2150.40;;;;;;5054429;28;20032;-77
2021/06/12 10:51:36;;;;;;;13.00;8.27;;;665.60;2124.80;;;;;;5054788;28;20017;-77
2021/06/12 10:54:20;;;;;;;4.00;3.07;;;640.80;2048.00;;;;;;5050181;28;20036;-77
2021/06/12 10:56:59;;;;;;;6.50;3.65;;;640.50;2073.60;;;;;;5054574;28;20075;-77
2021/06/12 10:59:36;;;;;;;5.55;3.55;;;640.20;2099.20;;;;;;5055832;28;20405;-79
2021/06/12 11:02:20;;;;;;;12.98;4.57;;;640.10;2124.80;;;;;;5065011;28;20049;-77
2021/06/12 11:04:52;;;;;;;9.13;4.00;;;640.00;2150.40;;;;;;5057893;28;20035;-77
2021/06/12 11:07:27;;;;;;;11.07;4.65;;;615.20;2201.60;;;;;;5075592;28;20025;-78
2021/06/12 11:10:18;;;;;;;10.43;5.05;;;615.00;2227.20;;;;;;5057588;28;20435;-77
2021/06/12 11:12:52;;;;;;;7.20;4.13;;;615.00;2278.40;;;;;;5075393;28;20467;-77
2021/06/12 11:15:23;;;;;;;8.27;4.30;;;614.80;2304.00;;;;;;5057741;28;20035;-76
2021/06/12 11:18:16;;;;;;;6.97;4.70;;;614.90;2304.00;;;;;;5075144;28;20017;-77
2021/06/12 11:20:45;;;;;;;7.25;4.32;;;614.90;2380.80;;;;;;5057583;28;20021;-79
2021/06/12 11:23:14;;;;;;;5.82;3.90;;;615.00;2355.20;;;;;;5057148;28;20029;-77
2021/06/12 11:25:45;;;;;;;5.00;3.63;;;640.10;2329.60;;;;;;5075534;28;20067;-78
2021/06/12 11:28:31;;;;;;;7.97;3.95;;;640.60;2227.20;;;;;;5057555;28;20020;-79
2021/06/12 11:31:26;;;;;;;10.48;4.20;;;640.40;2201.60;;;;;;5057132;28;20078;-77
2021/06/12 11:34:16;;;;;;;8.23;3.80;;;640.60;2124.80;;;;;;5050767;28;20119;-78
2021/06/12 11:36:43;;;;;;;20.95;5.70;;;666.10;2124.80;;;;;;5057492;28;20035;-78
2021/06/12 11:39:11;;;;;;;5.30;3.38;;;691.30;2073.60;;;;;;5074909;28;20090;-78
2021/06/12 11:41:37;;;;;;;10.57;4.57;;;691.70;2048.00;;;;;;5057311;28;20021;-77
2021/06/12 11:44:03;;;;;;;12.13;8.18;;;692.00;1971.20;;;;;;5074721;28;20098;-78
2021/06/12 11:46:35;;;;;;;7.25;5.55;;;717.10;2022.40;;;;;;5075083;28;20455;-78
2021/06/12 11:49:05;;;;;;;10.95;5.75;;;717.00;1945.60;;;;;;5075058;28;20027;-78
2021/06/12 11:51:37;;;;;;;14.02;7.78;;;717.00;1945.60;;;;;;5056707;28;20020;-78
2021/06/12 11:54:09;;;;;;;5.97;3.83;;;716.80;1868.80;;;;;;5075364;28;20028;-78
2021/06/12 11:56:47;;;;;;;7.70;3.13;;;691.80;1920.00;;;;;;5057033;28;20024;-79
2021/06/12 11:59:20;;;;;;;5.10;3.53;;;691.40;1920.00;;;;;;5056617;28;20115;-80
2021/06/12 12:01:48;;;;;;;6.97;3.60;;;666.50;1996.80;;;;;;5056557;28;20055;-80
2021/06/12 12:04:18;;;;;;;9.48;4.10;;;666.30;2022.40;;;;;;5074293;28;20043;-78
2021/06/12 12:06:56;;;;;;;7.43;3.78;;;666.20;2022.40;;;;;;5056342;28;20024;-80
2021/06/12 12:09:23;;;;;;;10.43;3.78;;;691.50;1996.80;;;;;;5056756;28;20021;-81
2021/06/12 12:11:54;;;;;;;6.05;3.80;;;691.80;1945.60;;;;;;5056529;28;20111;-79
2021/06/12 12:14:28;;;;;;;6.80;3.83;;;716.90;1971.20;;;;;;5055428;28;20119;-80
2021/06/12 12:16:55;;;;;;;7.55;4.10;;;717.20;1920.00;;;;;;5055031;28;20016;-80
2021/06/12 12:19:21;;;;;;;9.88;4.43;;;717.70;1894.40;;;;;;5055240;28;20448;-80